sensor_id;sensor_type;location;lat;lon;timestamp;P1;durP1;ratioP1;P2;durP2;ratioP2
40290;SDS011;26000;48.304;13.626;2023-04-24T00:02:22;3.95;;;2.10;;
40290;SDS011;26000;48.304;13.626;2023-04-24T00:04:48;2.08;;;1.80;;
40290;SDS011;26000;48.304;13.626;2023-04-24T00:07:14;2.15;;;1.95;;
40290;SDS011;26000;48.304;13.626;2023-04-24T00:09:41;3.05;;;1.80;;
40290;SDS011;26000;48.304;13.626;2023-04-24T00:12:08;3.45;;;2.08;;
40290;SDS011;26000;48.304;13.626;2023-04-24T00:14:33;4.20;;;1.98;;
40290;SDS011;26000;48.304;13.626;2023-04-24T00:17:00;3.55;;;2.15;;
40290;SDS011;26000;48.304;13.626;2023-04-24T00:19:27;3.10;;;2.10;;
40290;SDS011;26000;48.304;13.626;2023-04-24T00:21:53;2.88;;;2.10;;
40290;SDS011;26000;48.304;13.626;2023-04-24T00:24:19;3.63;;;2.00;;
40290;SDS011;26000;48.304;13.626;2023-04-24T00:26:45;3.22;;;2.10;;
40290;SDS011;26000;48.304;13.626;2023-04-24T00:29:11;3.75;;;2.30;;
40290;SDS011;26000;48.304;13.626;2023-04-24T00:31:37;5.20;;;2.17;;
40290;SDS011;26000;48.304;13.626;2023-04-24T00:34:03;3.85;;;2.05;;
40290;SDS011;26000;48.304;13.626;2023-04-24T00:36:29;3.50;;;2.10;;
40290;SDS011;26000;48.304;13.626;2023-04-24T00:38:55;2.65;;;1.85;;
40290;SDS011;26000;48.304;13.626;2023-04-24T00:41:22;3.92;;;2.13;;
40290;SDS011;26000;48.304;13.626;2023-04-24T00:43:49;3.92;;;2.10;;
40290;SDS011;26000;48.304;13.626;2023-04-24T00:46:15;2.75;;;2.13;;
40290;SDS011;26000;48.304;13.626;2023-04-24T00:48:41;3.42;;;2.10;;
40290;SDS011;26000;48.304;13.626;2023-04-24T00:51:08;2.53;;;1.98;;
40290;SDS011;26000;48.304;13.626;2023-04-24T00:53:34;4.80;;;2.20;;
40290;SDS011;26000;48.304;13.626;2023-04-24T00:56:00;2.38;;;2.15;;
40290;SDS011;26000;48.304;13.626;2023-04-24T00:58:27;3.40;;;2.08;;
40290;SDS011;26000;48.304;13.626;2023-04-24T01:00:52;1.95;;;1.83;;
40290;SDS011;26000;48.304;13.626;2023-04-24T01:03:21;2.90;;;2.30;;
40290;SDS011;26000;48.304;13.626;2023-04-24T01:05:49;2.97;;;1.95;;
40290;SDS011;26000;48.304;13.626;2023-04-24T01:08:15;2.97;;;1.67;;
40290;SDS011;26000;48.304;13.626;2023-04-24T01:10:41;1.90;;;1.65;;
40290;SDS011;26000;48.304;13.626;2023-04-24T01:13:09;4.22;;;1.80;;
40290;SDS011;26000;48.304;13.626;2023-04-24T01:15:35;3.33;;;1.60;;
40290;SDS011;26000;48.304;13.626;2023-04-24T01:18:01;1.95;;;1.80;;
40290;SDS011;26000;48.304;13.626;2023-04-24T01:20:27;2.78;;;1.90;;
40290;SDS011;26000;48.304;13.626;2023-04-24T01:22:56;2.65;;;1.60;;
40290;SDS011;26000;48.304;13.626;2023-04-24T01:25:22;1.98;;;1.58;;
40290;SDS011;26000;48.304;13.626;2023-04-24T01:27:49;1.80;;;1.60;;
40290;SDS011;26000;48.304;13.626;2023-04-24T01:30:16;1.67;;;1.58;;
40290;SDS011;26000;48.304;13.626;2023-04-24T01:32:42;2.35;;;1.55;;
40290;SDS011;26000;48.304;13.626;2023-04-24T01:35:09;2.55;;;1.83;;
40290;SDS011;26000;48.304;13.626;2023-04-24T01:37:35;1.77;;;1.67;;
40290;SDS011;26000;48.304;13.626;2023-04-24T01:40:02;3.88;;;2.05;;
40290;SDS011;26000;48.304;13.626;2023-04-24T01:42:29;2.15;;;1.90;;
40290;SDS011;26000;48.304;13.626;2023-04-24T01:44:55;3.00;;;2.42;;
40290;SDS011;26000;48.304;13.626;2023-04-24T01:47:22;2.95;;;2.55;;
40290;SDS011;26000;48.304;13.626;2023-04-24T01:49:48;2.97;;;2.67;;
40290;SDS011;26000;48.304;13.626;2023-04-24T01:52:15;4.15;;;3.10;;
40290;SDS011;26000;48.304;13.626;2023-04-24T01:54:43;4.10;;;3.20;;
40290;SDS011;26000;48.304;13.626;2023-04-24T01:57:09;3.90;;;3.17;;
40290;SDS011;26000;48.304;13.626;2023-04-24T01:59:35;4.20;;;3.03;;
40290;SDS011;26000;48.304;13.626;2023-04-24T02:02:01;5.57;;;3.70;;
40290;SDS011;26000;48.304;13.626;2023-04-24T02:04:27;4.75;;;3.22;;
40290;SDS011;26000;48.304;13.626;2023-04-24T02:06:53;4.20;;;3.80;;
40290;SDS011;26000;48.304;13.626;2023-04-24T02:09:18;3.58;;;3.28;;
40290;SDS011;26000;48.304;13.626;2023-04-24T02:11:44;3.50;;;3.20;;
40290;SDS011;26000;48.304;13.626;2023-04-24T02:14:10;3.72;;;3.28;;
40290;SDS011;26000;48.304;13.626;2023-04-24T02:16:35;3.97;;;3.30;;
40290;SDS011;26000;48.304;13.626;2023-04-24T02:19:01;6.68;;;3.30;;
40290;SDS011;26000;48.304;13.626;2023-04-24T02:21:27;4.82;;;3.55;;
40290;SDS011;26000;48.304;13.626;2023-04-24T02:23:53;4.38;;;3.47;;
40290;SDS011;26000;48.304;13.626;2023-04-24T02:26:19;5.05;;;3.60;;
40290;SDS011;26000;48.304;13.626;2023-04-24T02:28:45;5.72;;;3.83;;
40290;SDS011;26000;48.304;13.626;2023-04-24T02:31:10;5.57;;;4.10;;
40290;SDS011;26000;48.304;13.626;2023-04-24T02:33:36;4.72;;;3.45;;
40290;SDS011;26000;48.304;13.626;2023-04-24T02:36:02;4.68;;;4.18;;
40290;SDS011;26000;48.304;13.626;2023-04-24T02:38:28;4.00;;;3.60;;
40290;SDS011;26000;48.304;13.626;2023-04-24T02:40:54;4.55;;;3.97;;
40290;SDS011;26000;48.304;13.626;2023-04-24T02:43:19;5.70;;;4.28;;
40290;SDS011;26000;48.304;13.626;2023-04-24T02:45:45;4.85;;;3.90;;
40290;SDS011;26000;48.304;13.626;2023-04-24T02:48:11;5.05;;;3.80;;
40290;SDS011;26000;48.304;13.626;2023-04-24T02:50:36;4.63;;;3.72;;
40290;SDS011;26000;48.304;13.626;2023-04-24T02:53:03;4.97;;;3.92;;
40290;SDS011;26000;48.304;13.626;2023-04-24T02:55:28;4.22;;;3.58;;
40290;SDS011;26000;48.304;13.626;2023-04-24T02:57:55;4.03;;;3.25;;
40290;SDS011;26000;48.304;13.626;2023-04-24T03:00:21;3.47;;;3.00;;
40290;SDS011;26000;48.304;13.626;2023-04-24T03:02:46;4.80;;;3.00;;
40290;SDS011;26000;48.304;13.626;2023-04-24T03:05:12;3.45;;;2.97;;
40290;SDS011;26000;48.304;13.626;2023-04-24T03:07:38;4.53;;;3.30;;
40290;SDS011;26000;48.304;13.626;2023-04-24T03:10:04;4.45;;;3.28;;
40290;SDS011;26000;48.304;13.626;2023-04-24T03:12:31;4.25;;;3.38;;
40290;SDS011;26000;48.304;13.626;2023-04-24T03:14:56;5.07;;;3.72;;
40290;SDS011;26000;48.304;13.626;2023-04-24T03:17:22;4.47;;;3.50;;
40290;SDS011;26000;48.304;13.626;2023-04-24T03:19:47;4.13;;;3.00;;
40290;SDS011;26000;48.304;13.626;2023-04-24T03:22:13;3.53;;;3.20;;
40290;SDS011;26000;48.304;13.626;2023-04-24T03:24:39;3.63;;;3.22;;
40290;SDS011;26000;48.304;13.626;2023-04-24T03:27:05;5.18;;;3.45;;
40290;SDS011;26000;48.304;13.626;2023-04-24T03:29:30;4.10;;;2.95;;
40290;SDS011;26000;48.304;13.626;2023-04-24T03:31:56;5.40;;;3.05;;
40290;SDS011;26000;48.304;13.626;2023-04-24T03:34:22;3.20;;;2.80;;
40290;SDS011;26000;48.304;13.626;2023-04-24T03:36:47;3.30;;;3.00;;
40290;SDS011;26000;48.304;13.626;2023-04-24T03:39:13;2.90;;;2.60;;
40290;SDS011;26000;48.304;13.626;2023-04-24T03:41:38;3.72;;;2.78;;
40290;SDS011;26000;48.304;13.626;2023-04-24T03:44:05;4.55;;;2.78;;
40290;SDS011;26000;48.304;13.626;2023-04-24T03:46:30;2.92;;;2.58;;
40290;SDS011;26000;48.304;13.626;2023-04-24T03:48:56;2.90;;;2.70;;
40290;SDS011;26000;48.304;13.626;2023-04-24T03:51:21;5.15;;;2.92;;
40290;SDS011;26000;48.304;13.626;2023-04-24T03:53:47;2.63;;;2.42;;
40290;SDS011;26000;48.304;13.626;2023-04-24T03:56:13;4.10;;;2.70;;
40290;SDS011;26000;48.304;13.626;2023-04-24T03:58:39;3.38;;;2.67;;
40290;SDS011;26000;48.304;13.626;2023-04-24T04:01:05;6.18;;;2.33;;
40290;SDS011;26000;48.304;13.626;2023-04-24T04:03:31;3.60;;;2.30;;
40290;SDS011;26000;48.304;13.626;2023-04-24T04:05:57;5.28;;;2.10;;
40290;SDS011;26000;48.304;13.626;2023-04-24T04:08:22;2.13;;;1.92;;
40290;SDS011;26000;48.304;13.626;2023-04-24T04:10:48;3.42;;;2.22;;
40290;SDS011;26000;48.304;13.626;2023-04-24T04:13:14;2.60;;;2.15;;
40290;SDS011;26000;48.304;13.626;2023-04-24T04:15:40;4.32;;;2.28;;
40290;SDS011;26000;48.304;13.626;2023-04-24T04:18:06;3.15;;;2.75;;
40290;SDS011;26000;48.304;13.626;2023-04-24T04:20:31;2.53;;;2.33;;
40290;SDS011;26000;48.304;13.626;2023-04-24T04:22:57;2.75;;;2.33;;
40290;SDS011;26000;48.304;13.626;2023-04-24T04:25:22;2.47;;;2.08;;
40290;SDS011;26000;48.304;13.626;2023-04-24T04:27:48;7.65;;;5.18;;
40290;SDS011;26000;48.304;13.626;2023-04-24T04:30:16;8.82;;;4.13;;
40290;SDS011;26000;48.304;13.626;2023-04-24T04:32:43;13.25;;;6.22;;
40290;SDS011;26000;48.304;13.626;2023-04-24T04:35:09;2.92;;;2.38;;
40290;SDS011;26000;48.304;13.626;2023-04-24T04:37:35;2.00;;;1.63;;
40290;SDS011;26000;48.304;13.626;2023-04-24T04:40:01;3.78;;;1.90;;
40290;SDS011;26000;48.304;13.626;2023-04-24T04:42:35;2.08;;;1.50;;
40290;SDS011;26000;48.304;13.626;2023-04-24T04:45:05;3.30;;;1.73;;
40290;SDS011;26000;48.304;13.626;2023-04-24T04:47:34;5.95;;;3.30;;
40290;SDS011;26000;48.304;13.626;2023-04-24T04:50:00;3.05;;;1.90;;
40290;SDS011;26000;48.304;13.626;2023-04-24T04:52:25;1.80;;;1.50;;
40290;SDS011;26000;48.304;13.626;2023-04-24T04:54:51;1.75;;;1.30;;
40290;SDS011;26000;48.304;13.626;2023-04-24T04:57:17;3.10;;;1.30;;
40290;SDS011;26000;48.304;13.626;2023-04-24T04:59:43;1.30;;;1.20;;
40290;SDS011;26000;48.304;13.626;2023-04-24T05:02:08;1.75;;;1.25;;
40290;SDS011;26000;48.304;13.626;2023-04-24T05:04:34;2.08;;;1.20;;
40290;SDS011;26000;48.304;13.626;2023-04-24T05:07:00;1.20;;;1.10;;
40290;SDS011;26000;48.304;13.626;2023-04-24T05:09:25;2.50;;;1.25;;
40290;SDS011;26000;48.304;13.626;2023-04-24T05:11:52;1.40;;;1.10;;
40290;SDS011;26000;48.304;13.626;2023-04-24T05:14:18;2.78;;;1.30;;
40290;SDS011;26000;48.304;13.626;2023-04-24T05:16:44;1.83;;;1.20;;
40290;SDS011;26000;48.304;13.626;2023-04-24T05:19:10;1.83;;;1.10;;
40290;SDS011;26000;48.304;13.626;2023-04-24T05:21:36;1.60;;;1.10;;
40290;SDS011;26000;48.304;13.626;2023-04-24T05:24:04;2.28;;;1.30;;
40290;SDS011;26000;48.304;13.626;2023-04-24T05:26:30;1.50;;;1.10;;
40290;SDS011;26000;48.304;13.626;2023-04-24T05:28:55;1.17;;;1.08;;
40290;SDS011;26000;48.304;13.626;2023-04-24T05:31:21;5.10;;;1.05;;
40290;SDS011;26000;48.304;13.626;2023-04-24T05:33:46;1.50;;;1.10;;
40290;SDS011;26000;48.304;13.626;2023-04-24T05:36:12;23.95;;;21.33;;
40290;SDS011;26000;48.304;13.626;2023-04-24T05:38:38;37.00;;;33.28;;
40290;SDS011;26000;48.304;13.626;2023-04-24T05:41:03;19.17;;;17.48;;
40290;SDS011;26000;48.304;13.626;2023-04-24T05:43:29;33.58;;;27.40;;
40290;SDS011;26000;48.304;13.626;2023-04-24T05:45:55;43.40;;;35.20;;
40290;SDS011;26000;48.304;13.626;2023-04-24T05:48:20;77.97;;;69.70;;
40290;SDS011;26000;48.304;13.626;2023-04-24T05:50:47;37.28;;;33.47;;
40290;SDS011;26000;48.304;13.626;2023-04-24T05:53:13;72.88;;;60.40;;
40290;SDS011;26000;48.304;13.626;2023-04-24T05:55:39;64.72;;;47.85;;
40290;SDS011;26000;48.304;13.626;2023-04-24T05:58:04;24.08;;;19.60;;
40290;SDS011;26000;48.304;13.626;2023-04-24T06:00:31;24.70;;;19.88;;
40290;SDS011;26000;48.304;13.626;2023-04-24T06:02:57;35.60;;;31.92;;
40290;SDS011;26000;48.304;13.626;2023-04-24T06:05:23;27.40;;;24.58;;
40290;SDS011;26000;48.304;13.626;2023-04-24T06:07:49;28.13;;;24.92;;
40290;SDS011;26000;48.304;13.626;2023-04-24T06:10:15;11.30;;;9.57;;
40290;SDS011;26000;48.304;13.626;2023-04-24T06:12:40;1.98;;;1.88;;
40290;SDS011;26000;48.304;13.626;2023-04-24T06:15:06;2.00;;;1.58;;
40290;SDS011;26000;48.304;13.626;2023-04-24T06:17:32;1.42;;;1.13;;
40290;SDS011;26000;48.304;13.626;2023-04-24T06:19:57;1.88;;;1.40;;
40290;SDS011;26000;48.304;13.626;2023-04-24T06:22:23;1.02;;;0.90;;
40290;SDS011;26000;48.304;13.626;2023-04-24T06:24:49;2.38;;;1.02;;
40290;SDS011;26000;48.304;13.626;2023-04-24T06:27:14;2.03;;;1.05;;
40290;SDS011;26000;48.304;13.626;2023-04-24T06:29:40;1.92;;;1.42;;
40290;SDS011;26000;48.304;13.626;2023-04-24T06:32:06;4.53;;;3.53;;
40290;SDS011;26000;48.304;13.626;2023-04-24T06:34:31;27.23;;;15.65;;
40290;SDS011;26000;48.304;13.626;2023-04-24T06:36:58;18.25;;;12.73;;
40290;SDS011;26000;48.304;13.626;2023-04-24T06:39:24;128.48;;;105.93;;
40290;SDS011;26000;48.304;13.626;2023-04-24T06:41:50;29.17;;;26.08;;
40290;SDS011;26000;48.304;13.626;2023-04-24T06:44:16;7.57;;;6.57;;
40290;SDS011;26000;48.304;13.626;2023-04-24T06:46:41;3.15;;;2.85;;
40290;SDS011;26000;48.304;13.626;2023-04-24T06:49:07;5.00;;;4.50;;
40290;SDS011;26000;48.304;13.626;2023-04-24T06:51:33;4.70;;;3.97;;
40290;SDS011;26000;48.304;13.626;2023-04-24T06:53:58;7.93;;;7.10;;
40290;SDS011;26000;48.304;13.626;2023-04-24T06:56:25;5.53;;;5.03;;
40290;SDS011;26000;48.304;13.626;2023-04-24T06:58:51;7.55;;;6.85;;
40290;SDS011;26000;48.304;13.626;2023-04-24T07:01:17;5.93;;;5.43;;
40290;SDS011;26000;48.304;13.626;2023-04-24T07:03:42;3.10;;;2.80;;
40290;SDS011;26000;48.304;13.626;2023-04-24T07:06:08;3.20;;;2.90;;
40290;SDS011;26000;48.304;13.626;2023-04-24T07:08:36;1.92;;;1.83;;
40290;SDS011;26000;48.304;13.626;2023-04-24T07:11:01;2.08;;;1.92;;
40290;SDS011;26000;48.304;13.626;2023-04-24T07:13:27;3.88;;;1.70;;
40290;SDS011;26000;48.304;13.626;2023-04-24T07:15:53;1.33;;;1.23;;
40290;SDS011;26000;48.304;13.626;2023-04-24T07:18:23;2.38;;;2.17;;
40290;SDS011;26000;48.304;13.626;2023-04-24T07:20:48;1.90;;;1.70;;
40290;SDS011;26000;48.304;13.626;2023-04-24T07:23:17;4.88;;;3.75;;
40290;SDS011;26000;48.304;13.626;2023-04-24T07:25:43;5.93;;;4.57;;
40290;SDS011;26000;48.304;13.626;2023-04-24T07:28:09;5.43;;;4.82;;
40290;SDS011;26000;48.304;13.626;2023-04-24T07:30:35;3.80;;;3.15;;
40290;SDS011;26000;48.304;13.626;2023-04-24T07:33:00;2.60;;;1.80;;
40290;SDS011;26000;48.304;13.626;2023-04-24T07:35:26;1.58;;;1.25;;
40290;SDS011;26000;48.304;13.626;2023-04-24T07:37:54;2.05;;;1.40;;
40290;SDS011;26000;48.304;13.626;2023-04-24T07:40:21;1.60;;;1.30;;
40290;SDS011;26000;48.304;13.626;2023-04-24T07:42:46;1.73;;;1.13;;
40290;SDS011;26000;48.304;13.626;2023-04-24T07:45:13;1.58;;;1.35;;
40290;SDS011;26000;48.304;13.626;2023-04-24T07:47:40;3.47;;;1.67;;
40290;SDS011;26000;48.304;13.626;2023-04-24T07:50:08;2.42;;;2.10;;
40290;SDS011;26000;48.304;13.626;2023-04-24T07:52:35;3.40;;;2.58;;
40290;SDS011;26000;48.304;13.626;2023-04-24T07:55:01;4.85;;;3.10;;
40290;SDS011;26000;48.304;13.626;2023-04-24T07:57:27;2.20;;;2.00;;
40290;SDS011;26000;48.304;13.626;2023-04-24T07:59:53;3.58;;;2.00;;
40290;SDS011;26000;48.304;13.626;2023-04-24T08:02:19;2.47;;;1.63;;
40290;SDS011;26000;48.304;13.626;2023-04-24T08:04:51;2.85;;;2.65;;
40290;SDS011;26000;48.304;13.626;2023-04-24T08:07:19;2.40;;;2.10;;
40290;SDS011;26000;48.304;13.626;2023-04-24T08:09:45;2.45;;;2.08;;
40290;SDS011;26000;48.304;13.626;2023-04-24T08:12:11;3.38;;;2.40;;
40290;SDS011;26000;48.304;13.626;2023-04-24T08:14:36;4.10;;;2.70;;
40290;SDS011;26000;48.304;13.626;2023-04-24T08:17:02;3.22;;;1.60;;
40290;SDS011;26000;48.304;13.626;2023-04-24T08:19:28;2.70;;;1.70;;
40290;SDS011;26000;48.304;13.626;2023-04-24T08:21:54;3.67;;;2.83;;
40290;SDS011;26000;48.304;13.626;2023-04-24T08:24:19;2.30;;;2.10;;
40290;SDS011;26000;48.304;13.626;2023-04-24T08:26:45;2.65;;;2.45;;
40290;SDS011;26000;48.304;13.626;2023-04-24T08:29:11;3.63;;;2.80;;
40290;SDS011;26000;48.304;13.626;2023-04-24T08:31:37;2.72;;;2.33;;
40290;SDS011;26000;48.304;13.626;2023-04-24T08:34:02;2.13;;;1.30;;
40290;SDS011;26000;48.304;13.626;2023-04-24T08:36:28;1.58;;;1.20;;
40290;SDS011;26000;48.304;13.626;2023-04-24T08:38:53;2.20;;;1.25;;
40290;SDS011;26000;48.304;13.626;2023-04-24T08:41:19;1.40;;;1.13;;
40290;SDS011;26000;48.304;13.626;2023-04-24T08:43:46;1.70;;;1.10;;
40290;SDS011;26000;48.304;13.626;2023-04-24T08:46:12;1.45;;;1.20;;
40290;SDS011;26000;48.304;13.626;2023-04-24T08:48:39;1.52;;;1.40;;
40290;SDS011;26000;48.304;13.626;2023-04-24T08:51:07;3.50;;;3.20;;
40290;SDS011;26000;48.304;13.626;2023-04-24T08:53:33;2.45;;;2.03;;
40290;SDS011;26000;48.304;13.626;2023-04-24T08:56:00;2.45;;;1.40;;
40290;SDS011;26000;48.304;13.626;2023-04-24T08:58:27;2.10;;;1.10;;
40290;SDS011;26000;48.304;13.626;2023-04-24T09:00:57;1.10;;;1.00;;
40290;SDS011;26000;48.304;13.626;2023-04-24T09:03:23;2.80;;;1.58;;
40290;SDS011;26000;48.304;13.626;2023-04-24T09:05:49;1.13;;;1.00;;
40290;SDS011;26000;48.304;13.626;2023-04-24T09:08:18;1.90;;;1.23;;
40290;SDS011;26000;48.304;13.626;2023-04-24T09:10:44;2.20;;;2.00;;
40290;SDS011;26000;48.304;13.626;2023-04-24T09:13:10;1.58;;;1.15;;
40290;SDS011;26000;48.304;13.626;2023-04-24T09:15:36;2.05;;;1.15;;
40290;SDS011;26000;48.304;13.626;2023-04-24T09:18:02;2.00;;;1.38;;
40290;SDS011;26000;48.304;13.626;2023-04-24T09:20:29;2.58;;;1.40;;
40290;SDS011;26000;48.304;13.626;2023-04-24T09:22:55;2.22;;;1.10;;
40290;SDS011;26000;48.304;13.626;2023-04-24T09:25:22;1.50;;;1.00;;
40290;SDS011;26000;48.304;13.626;2023-04-24T09:27:58;1.27;;;1.10;;
40290;SDS011;26000;48.304;13.626;2023-04-24T09:30:26;2.97;;;1.00;;
40290;SDS011;26000;48.304;13.626;2023-04-24T09:33:09;2.83;;;0.90;;
40290;SDS011;26000;48.304;13.626;2023-04-24T09:35:35;0.88;;;0.75;;
40290;SDS011;26000;48.304;13.626;2023-04-24T09:38:01;0.80;;;0.80;;
40290;SDS011;26000;48.304;13.626;2023-04-24T09:40:26;2.15;;;0.80;;
40290;SDS011;26000;48.304;13.626;2023-04-24T09:42:53;0.90;;;0.68;;
40290;SDS011;26000;48.304;13.626;2023-04-24T09:45:35;1.25;;;0.80;;
40290;SDS011;26000;48.304;13.626;2023-04-24T09:48:02;1.42;;;0.77;;
40290;SDS011;26000;48.304;13.626;2023-04-24T09:50:30;1.20;;;0.70;;
40290;SDS011;26000;48.304;13.626;2023-04-24T09:53:01;0.90;;;0.90;;
40290;SDS011;26000;48.304;13.626;2023-04-24T09:55:28;0.80;;;0.80;;
40290;SDS011;26000;48.304;13.626;2023-04-24T09:57:56;1.40;;;0.90;;
40290;SDS011;26000;48.304;13.626;2023-04-24T10:00:26;1.92;;;1.00;;
40290;SDS011;26000;48.304;13.626;2023-04-24T10:03:01;3.15;;;1.08;;
40290;SDS011;26000;48.304;13.626;2023-04-24T10:05:31;1.90;;;1.10;;
40290;SDS011;26000;48.304;13.626;2023-04-24T10:08:07;4.25;;;2.92;;
40290;SDS011;26000;48.304;13.626;2023-04-24T10:13:12;3.30;;;2.05;;
40290;SDS011;26000;48.304;13.626;2023-04-24T10:15:40;2.65;;;1.60;;
40290;SDS011;26000;48.304;13.626;2023-04-24T10:18:06;1.92;;;1.52;;
40290;SDS011;26000;48.304;13.626;2023-04-24T10:20:34;2.15;;;1.35;;
40290;SDS011;26000;48.304;13.626;2023-04-24T10:23:01;1.17;;;1.05;;
40290;SDS011;26000;48.304;13.626;2023-04-24T10:25:28;2.72;;;1.40;;
40290;SDS011;26000;48.304;13.626;2023-04-24T10:27:56;1.73;;;1.50;;
40290;SDS011;26000;48.304;13.626;2023-04-24T10:30:24;1.73;;;1.50;;
40290;SDS011;26000;48.304;13.626;2023-04-24T10:33:01;6.85;;;5.07;;
40290;SDS011;26000;48.304;13.626;2023-04-24T10:35:29;2.17;;;1.92;;
40290;SDS011;26000;48.304;13.626;2023-04-24T10:38:05;1.60;;;1.17;;
40290;SDS011;26000;48.304;13.626;2023-04-24T10:40:34;2.75;;;1.00;;
40290;SDS011;26000;48.304;13.626;2023-04-24T10:43:04;1.25;;;1.10;;
40290;SDS011;26000;48.304;13.626;2023-04-24T10:45:33;1.52;;;1.35;;
40290;SDS011;26000;48.304;13.626;2023-04-24T10:48:01;2.35;;;1.20;;
40290;SDS011;26000;48.304;13.626;2023-04-24T10:50:51;1.45;;;1.27;;
40290;SDS011;26000;48.304;13.626;2023-04-24T10:53:21;3.20;;;1.80;;
40290;SDS011;26000;48.304;13.626;2023-04-24T10:55:49;1.52;;;1.25;;
40290;SDS011;26000;48.304;13.626;2023-04-24T10:58:18;2.58;;;1.80;;
40290;SDS011;26000;48.304;13.626;2023-04-24T11:00:55;1.88;;;1.40;;
40290;SDS011;26000;48.304;13.626;2023-04-24T11:08:29;1.88;;;1.27;;
40290;SDS011;26000;48.304;13.626;2023-04-24T11:18:56;1.23;;;1.08;;
40290;SDS011;26000;48.304;13.626;2023-04-24T11:21:28;1.77;;;0.90;;
40290;SDS011;26000;48.304;13.626;2023-04-24T11:29:47;1.38;;;0.90;;
40290;SDS011;26000;48.304;13.626;2023-04-24T11:32:24;4.15;;;3.15;;
40290;SDS011;26000;48.304;13.626;2023-04-24T11:34:51;7.10;;;5.18;;
40290;SDS011;26000;48.304;13.626;2023-04-24T11:37:18;1.90;;;1.30;;
40290;SDS011;26000;48.304;13.626;2023-04-24T11:39:44;2.40;;;2.00;;
40290;SDS011;26000;48.304;13.626;2023-04-24T11:42:10;1.73;;;0.88;;
40290;SDS011;26000;48.304;13.626;2023-04-24T11:44:38;2.47;;;1.00;;
40290;SDS011;26000;48.304;13.626;2023-04-24T11:47:06;5.10;;;1.50;;
40290;SDS011;26000;48.304;13.626;2023-04-24T11:49:32;2.53;;;1.45;;
40290;SDS011;26000;48.304;13.626;2023-04-24T11:51:57;2.78;;;1.73;;
40290;SDS011;26000;48.304;13.626;2023-04-24T11:54:25;5.20;;;4.05;;
40290;SDS011;26000;48.304;13.626;2023-04-24T11:56:51;2.30;;;1.60;;
40290;SDS011;26000;48.304;13.626;2023-04-24T11:59:17;6.95;;;4.35;;
40290;SDS011;26000;48.304;13.626;2023-04-24T12:01:45;2.50;;;1.70;;
40290;SDS011;26000;48.304;13.626;2023-04-24T12:04:11;3.47;;;1.73;;
40290;SDS011;26000;48.304;13.626;2023-04-24T12:06:38;3.15;;;1.77;;
40290;SDS011;26000;48.304;13.626;2023-04-24T12:09:03;2.75;;;1.52;;
40290;SDS011;26000;48.304;13.626;2023-04-24T12:11:29;7.57;;;4.70;;
40290;SDS011;26000;48.304;13.626;2023-04-24T12:13:55;6.40;;;4.00;;
40290;SDS011;26000;48.304;13.626;2023-04-24T12:16:21;5.82;;;3.65;;
40290;SDS011;26000;48.304;13.626;2023-04-24T12:18:46;17.58;;;8.77;;
40290;SDS011;26000;48.304;13.626;2023-04-24T12:21:19;23.10;;;11.65;;
40290;SDS011;26000;48.304;13.626;2023-04-24T12:23:46;14.57;;;7.60;;
40290;SDS011;26000;48.304;13.626;2023-04-24T12:26:14;22.48;;;10.32;;
40290;SDS011;26000;48.304;13.626;2023-04-24T12:28:42;25.33;;;11.38;;
40290;SDS011;26000;48.304;13.626;2023-04-24T12:31:08;15.25;;;8.15;;
40290;SDS011;26000;48.304;13.626;2023-04-24T12:33:34;21.38;;;10.07;;
40290;SDS011;26000;48.304;13.626;2023-04-24T12:36:00;11.52;;;6.18;;
40290;SDS011;26000;48.304;13.626;2023-04-24T12:38:26;12.73;;;7.22;;
40290;SDS011;26000;48.304;13.626;2023-04-24T12:41:08;12.20;;;5.57;;
40290;SDS011;26000;48.304;13.626;2023-04-24T12:43:34;4.40;;;3.15;;
40290;SDS011;26000;48.304;13.626;2023-04-24T12:46:01;3.67;;;2.33;;
40290;SDS011;26000;48.304;13.626;2023-04-24T12:48:27;3.03;;;2.75;;
40290;SDS011;26000;48.304;13.626;2023-04-24T12:50:53;3.20;;;2.60;;
40290;SDS011;26000;48.304;13.626;2023-04-24T12:53:21;4.10;;;2.25;;
40290;SDS011;26000;48.304;13.626;2023-04-24T12:55:47;3.33;;;1.80;;
40290;SDS011;26000;48.304;13.626;2023-04-24T12:58:18;3.20;;;1.95;;
40290;SDS011;26000;48.304;13.626;2023-04-24T13:00:44;3.17;;;2.03;;
40290;SDS011;26000;48.304;13.626;2023-04-24T13:03:11;2.20;;;2.00;;
40290;SDS011;26000;48.304;13.626;2023-04-24T13:05:37;3.40;;;2.00;;
40290;SDS011;26000;48.304;13.626;2023-04-24T13:08:02;1.70;;;1.60;;
40290;SDS011;26000;48.304;13.626;2023-04-24T13:10:28;3.05;;;1.80;;
40290;SDS011;26000;48.304;13.626;2023-04-24T13:12:54;2.42;;;1.80;;
40290;SDS011;26000;48.304;13.626;2023-04-24T13:15:20;2.17;;;1.85;;
40290;SDS011;26000;48.304;13.626;2023-04-24T13:17:45;2.33;;;1.70;;
40290;SDS011;26000;48.304;13.626;2023-04-24T13:20:11;2.20;;;2.00;;
40290;SDS011;26000;48.304;13.626;2023-04-24T13:22:37;2.30;;;1.70;;
40290;SDS011;26000;48.304;13.626;2023-04-24T13:25:02;2.40;;;1.92;;
40290;SDS011;26000;48.304;13.626;2023-04-24T13:27:30;2.40;;;1.70;;
40290;SDS011;26000;48.304;13.626;2023-04-24T13:29:56;4.93;;;1.70;;
40290;SDS011;26000;48.304;13.626;2023-04-24T13:32:22;2.83;;;1.90;;
40290;SDS011;26000;48.304;13.626;2023-04-24T13:34:47;2.13;;;1.92;;
40290;SDS011;26000;48.304;13.626;2023-04-24T13:37:13;2.33;;;1.80;;
40290;SDS011;26000;48.304;13.626;2023-04-24T13:39:38;2.33;;;1.90;;
40290;SDS011;26000;48.304;13.626;2023-04-24T13:42:06;2.45;;;1.70;;
40290;SDS011;26000;48.304;13.626;2023-04-24T13:44:31;3.05;;;1.75;;
40290;SDS011;26000;48.304;13.626;2023-04-24T13:46:57;3.92;;;1.70;;
40290;SDS011;26000;48.304;13.626;2023-04-24T13:49:24;2.50;;;1.70;;
40290;SDS011;26000;48.304;13.626;2023-04-24T13:51:50;2.10;;;1.55;;
40290;SDS011;26000;48.304;13.626;2023-04-24T13:54:17;2.10;;;1.67;;
40290;SDS011;26000;48.304;13.626;2023-04-24T13:56:42;2.67;;;1.58;;
40290;SDS011;26000;48.304;13.626;2023-04-24T13:59:08;4.10;;;1.75;;
40290;SDS011;26000;48.304;13.626;2023-04-24T14:01:34;4.75;;;1.95;;
40290;SDS011;26000;48.304;13.626;2023-04-24T14:04:00;5.05;;;2.22;;
40290;SDS011;26000;48.304;13.626;2023-04-24T14:06:25;4.40;;;2.10;;
40290;SDS011;26000;48.304;13.626;2023-04-24T14:08:51;2.33;;;1.75;;
40290;SDS011;26000;48.304;13.626;2023-04-24T14:11:17;2.90;;;1.98;;
40290;SDS011;26000;48.304;13.626;2023-04-24T14:13:44;1.67;;;1.55;;
40290;SDS011;26000;48.304;13.626;2023-04-24T14:16:10;1.83;;;1.70;;
40290;SDS011;26000;48.304;13.626;2023-04-24T14:18:36;2.15;;;1.85;;
40290;SDS011;26000;48.304;13.626;2023-04-24T14:21:05;3.72;;;2.03;;
40290;SDS011;26000;48.304;13.626;2023-04-24T14:23:31;4.15;;;1.60;;
40290;SDS011;26000;48.304;13.626;2023-04-24T14:25:57;3.33;;;1.90;;
40290;SDS011;26000;48.304;13.626;2023-04-24T14:28:23;4.47;;;1.40;;
40290;SDS011;26000;48.304;13.626;2023-04-24T14:30:49;3.15;;;2.80;;
40290;SDS011;26000;48.304;13.626;2023-04-24T14:33:15;2.00;;;1.80;;
40290;SDS011;26000;48.304;13.626;2023-04-24T14:35:41;1.45;;;1.35;;
40290;SDS011;26000;48.304;13.626;2023-04-24T14:38:09;1.70;;;1.60;;
40290;SDS011;26000;48.304;13.626;2023-04-24T14:40:35;1.85;;;1.60;;
40290;SDS011;26000;48.304;13.626;2023-04-24T14:43:01;2.33;;;2.13;;
40290;SDS011;26000;48.304;13.626;2023-04-24T14:45:27;2.83;;;2.58;;
40290;SDS011;26000;48.304;13.626;2023-04-24T14:47:53;2.35;;;2.15;;
40290;SDS011;26000;48.304;13.626;2023-04-24T14:50:19;10.90;;;5.45;;
40290;SDS011;26000;48.304;13.626;2023-04-24T14:52:45;9.02;;;5.75;;